createdAt,value
2023-12-27T00:02:00.246Z,3.28
2023-12-27T00:04:27.975Z,2.90
2023-12-27T00:06:58.522Z,3.55
2023-12-27T00:09:26.034Z,4.45
2023-12-27T00:11:53.864Z,2.72
2023-12-27T00:14:21.516Z,4.20
2023-12-27T00:16:48.928Z,3.00
2023-12-27T00:19:16.758Z,4.78
2023-12-27T00:21:44.400Z,3.55
2023-12-27T00:24:11.843Z,3.03
2023-12-27T00:26:39.694Z,3.58
2023-12-27T00:29:07.133Z,3.47
2023-12-27T00:31:34.778Z,4.22
2023-12-27T00:34:02.707Z,4.78
2023-12-27T00:36:31.609Z,3.28
2023-12-27T00:39:00.993Z,4.62
2023-12-27T00:41:29.207Z,3.30
2023-12-27T00:43:56.701Z,4.45
2023-12-27T00:46:25.011Z,2.62
2023-12-27T00:48:52.901Z,3.22
2023-12-27T00:51:20.911Z,2.30
2023-12-27T00:53:49.520Z,5.75
2023-12-27T00:56:17.238Z,4.62
2023-12-27T00:58:44.678Z,3.35
2023-12-27T01:01:13.075Z,3.22
2023-12-27T01:03:41.685Z,3.90
2023-12-27T01:06:10.661Z,3.28
2023-12-27T01:08:38.407Z,2.70
2023-12-27T01:11:06.334Z,2.72
2023-12-27T01:13:33.818Z,3.67
2023-12-27T01:16:01.430Z,5.47
2023-12-27T01:18:29.292Z,3.28
2023-12-27T01:20:57.081Z,3.08
2023-12-27T01:23:24.530Z,2.97
2023-12-27T01:25:52.237Z,5.62
2023-12-27T01:28:19.906Z,5.00
2023-12-27T01:30:47.454Z,4.20
2023-12-27T01:33:15.358Z,3.83
2023-12-27T01:35:42.901Z,3.60
2023-12-27T01:38:10.310Z,3.62
2023-12-27T01:40:38.081Z,3.55
2023-12-27T01:43:05.497Z,5.05
2023-12-27T01:45:32.955Z,3.25
2023-12-27T01:48:01.008Z,3.45
2023-12-27T01:50:28.781Z,3.47
2023-12-27T01:52:56.284Z,5.32
2023-12-27T01:55:23.972Z,4.62
2023-12-27T01:57:51.405Z,5.80
2023-12-27T02:00:19.031Z,5.55
2023-12-27T02:02:46.370Z,4.45
2023-12-27T02:05:14.054Z,5.70
2023-12-27T02:07:41.539Z,3.70
2023-12-27T02:10:09.163Z,4.72
2023-12-27T02:12:37.106Z,3.25
2023-12-27T02:15:05.528Z,4.80
2023-12-27T02:17:34.021Z,3.70
2023-12-27T02:20:01.857Z,5.10
2023-12-27T02:22:29.574Z,3.42
2023-12-27T02:24:57.001Z,3.17
2023-12-27T02:27:24.492Z,2.85
2023-12-27T02:29:52.198Z,5.62
2023-12-27T02:32:19.603Z,5.03
2023-12-27T02:34:47.222Z,4.37
2023-12-27T02:37:14.972Z,4.15
2023-12-27T02:39:42.342Z,3.80
2023-12-27T02:42:09.886Z,5.62
2023-12-27T02:44:37.562Z,5.78
2023-12-27T02:47:04.982Z,3.80
2023-12-27T02:49:32.456Z,3.78
2023-12-27T02:52:00.205Z,3.50
2023-12-27T02:54:27.631Z,3.45
2023-12-27T02:56:55.141Z,3.30
2023-12-27T02:59:22.817Z,3.58
2023-12-27T03:01:50.573Z,3.80
2023-12-27T03:04:18.019Z,3.70
2023-12-27T03:06:45.693Z,3.62
2023-12-27T03:09:13.536Z,3.67
2023-12-27T03:11:40.961Z,4.28
2023-12-27T03:14:08.673Z,3.92
2023-12-27T03:16:36.165Z,4.45
2023-12-27T03:19:03.796Z,3.87
2023-12-27T03:21:31.615Z,3.87
2023-12-27T03:23:59.163Z,5.10
2023-12-27T03:26:26.581Z,3.67
2023-12-27T03:28:54.303Z,6.80
2023-12-27T03:31:21.722Z,3.87
2023-12-27T03:33:49.296Z,3.42
2023-12-27T03:36:17.191Z,4.90
2023-12-27T03:38:44.631Z,4.00
2023-12-27T03:41:12.031Z,3.75
2023-12-27T03:43:40.139Z,4.40
2023-12-27T03:46:07.522Z,5.07
2023-12-27T03:48:35.889Z,3.53
2023-12-27T03:51:04.220Z,4.37
2023-12-27T03:53:32.602Z,3.53
2023-12-27T03:55:59.986Z,4.35
2023-12-27T03:58:27.670Z,4.07
2023-12-27T04:00:56.250Z,6.07
2023-12-27T04:03:24.224Z,3.80
2023-12-27T04:05:51.765Z,4.43
2023-12-27T04:08:19.210Z,3.50
2023-12-27T04:10:46.862Z,5.62
2023-12-27T04:13:14.284Z,3.92
2023-12-27T04:15:41.871Z,3.58
2023-12-27T04:18:12.737Z,4.30
2023-12-27T04:20:40.175Z,4.93
2023-12-27T04:23:07.580Z,4.18
2023-12-27T04:25:35.300Z,7.55
2023-12-27T04:28:03.414Z,5.65
2023-12-27T04:30:30.998Z,3.92
2023-12-27T04:32:59.117Z,4.00
2023-12-27T04:35:26.644Z,4.30
2023-12-27T04:37:54.109Z,4.18
2023-12-27T04:40:23.482Z,4.15
2023-12-27T04:42:50.906Z,4.32
2023-12-27T04:45:18.356Z,4.07
2023-12-27T04:47:46.116Z,5.90
2023-12-27T04:50:15.676Z,3.70
2023-12-27T04:52:43.385Z,4.03
2023-12-27T04:55:11.025Z,4.28
2023-12-27T04:57:38.922Z,5.22
2023-12-27T05:00:08.686Z,3.90
2023-12-27T05:02:36.434Z,6.30
2023-12-27T05:05:04.470Z,4.40
2023-12-27T05:07:32.167Z,3.87
2023-12-27T05:09:59.830Z,4.45
2023-12-27T05:12:27.235Z,6.93
2023-12-27T05:14:54.654Z,3.62
2023-12-27T05:17:23.033Z,3.92
2023-12-27T05:19:50.438Z,5.47
2023-12-27T05:22:18.460Z,3.97
2023-12-27T05:24:46.192Z,3.40
2023-12-27T05:27:13.642Z,3.53
2023-12-27T05:29:41.392Z,3.65
2023-12-27T05:32:09.074Z,4.55
2023-12-27T05:34:36.768Z,4.95
2023-12-27T05:37:04.324Z,3.37
2023-12-27T05:39:32.175Z,3.67
2023-12-27T05:41:59.627Z,4.62
2023-12-27T05:44:27.082Z,7.95
2023-12-27T05:46:54.749Z,5.55
2023-12-27T05:49:22.339Z,4.65
2023-12-27T05:51:49.801Z,7.55
2023-12-27T05:54:19.212Z,5.07
2023-12-27T05:56:46.659Z,5.68
2023-12-27T05:59:14.315Z,6.25
2023-12-27T06:01:48.898Z,4.40
2023-12-27T06:04:16.648Z,3.60
2023-12-27T06:06:45.144Z,4.82
2023-12-27T06:09:12.590Z,5.68
2023-12-27T06:11:40.302Z,7.65
2023-12-27T06:14:08.720Z,7.30
2023-12-27T06:16:36.140Z,6.00
2023-12-27T06:19:04.045Z,6.10
2023-12-27T06:21:31.559Z,5.45
2023-12-27T06:23:59.019Z,6.87
2023-12-27T06:26:26.695Z,7.22
2023-12-27T06:28:54.081Z,8.95
2023-12-27T06:31:21.584Z,7.43
2023-12-27T06:33:49.412Z,6.12
2023-12-27T06:36:16.994Z,7.00
2023-12-27T06:38:47.307Z,6.78
2023-12-27T06:41:17.573Z,7.40
2023-12-27T06:43:45.352Z,7.03
2023-12-27T06:46:12.804Z,5.25
2023-12-27T06:48:40.675Z,9.55
2023-12-27T06:51:08.936Z,11.77
2023-12-27T06:53:36.756Z,11.73
2023-12-27T06:56:04.675Z,55.83
2023-12-27T06:58:32.092Z,19.20
2023-12-27T07:00:59.633Z,15.85
2023-12-27T07:03:27.414Z,16.42
2023-12-27T07:05:55.009Z,10.75
2023-12-27T07:08:22.455Z,10.43
2023-12-27T07:10:50.122Z,8.52
2023-12-27T07:13:17.506Z,9.98
2023-12-27T07:15:45.031Z,8.35
2023-12-27T07:18:12.854Z,8.38
2023-12-27T07:20:40.319Z,8.45
2023-12-27T07:23:07.725Z,8.02
2023-12-27T07:25:35.597Z,7.60
2023-12-27T07:28:03.056Z,8.77
2023-12-27T07:30:30.499Z,8.35
2023-12-27T07:32:58.415Z,8.85
2023-12-27T07:35:27.034Z,9.18
2023-12-27T07:37:54.548Z,6.50
2023-12-27T07:40:22.297Z,7.62
2023-12-27T07:42:50.048Z,6.87
2023-12-27T07:45:19.522Z,8.68
2023-12-27T07:47:47.382Z,8.00
2023-12-27T07:50:14.903Z,48.60
2023-12-27T07:52:43.304Z,10.25
2023-12-27T07:55:11.959Z,12.18
2023-12-27T07:57:39.483Z,18.83
2023-12-27T08:00:08.555Z,15.60
2023-12-27T08:02:39.666Z,14.75
2023-12-27T08:05:08.208Z,13.32
2023-12-27T08:07:35.652Z,12.80
2023-12-27T08:10:03.264Z,9.55
2023-12-27T08:12:32.196Z,7.80
2023-12-27T08:14:59.579Z,9.07
2023-12-27T08:17:27.889Z,12.05
2023-12-27T08:19:55.703Z,6.80
2023-12-27T08:22:23.180Z,6.75
2023-12-27T08:24:50.623Z,4.62
2023-12-27T08:27:18.594Z,7.22
2023-12-27T08:29:46.008Z,6.28
2023-12-27T08:32:13.546Z,4.68
2023-12-27T08:34:41.269Z,4.55
2023-12-27T08:37:08.713Z,3.87
2023-12-27T08:39:36.187Z,4.40
2023-12-27T08:42:04.144Z,3.60
2023-12-27T08:44:31.763Z,5.57
2023-12-27T08:46:59.143Z,5.53
2023-12-27T08:49:26.931Z,4.53
2023-12-27T08:51:54.403Z,3.33
2023-12-27T08:54:21.875Z,4.03
2023-12-27T08:56:49.605Z,4.28
2023-12-27T08:59:16.991Z,4.00
2023-12-27T09:01:44.405Z,7.00
2023-12-27T09:04:12.230Z,3.87
2023-12-27T09:06:39.834Z,5.22
2023-12-27T09:09:07.712Z,3.60
2023-12-27T09:11:41.336Z,4.05
2023-12-27T09:14:11.239Z,5.10
2023-12-27T09:16:38.973Z,6.03
2023-12-27T09:19:06.620Z,4.43
2023-12-27T09:21:34.438Z,4.85
2023-12-27T09:24:02.433Z,4.35
2023-12-27T09:26:30.793Z,8.10
2023-12-27T09:28:58.190Z,4.60
2023-12-27T09:31:30.551Z,5.18
2023-12-27T09:34:00.915Z,8.18
2023-12-27T09:36:28.965Z,6.82
2023-12-27T09:38:56.387Z,4.75
2023-12-27T09:41:23.865Z,6.50
2023-12-27T09:43:53.059Z,8.27
2023-12-27T09:46:20.478Z,6.87
2023-12-27T09:48:48.181Z,5.20
2023-12-27T09:51:23.851Z,6.90
2023-12-27T09:53:51.908Z,6.97
2023-12-27T09:56:19.942Z,5.82
2023-12-27T09:58:54.808Z,12.13
2023-12-27T10:01:24.776Z,5.12
2023-12-27T10:04:04.888Z,5.95
2023-12-27T10:06:48.988Z,4.60
2023-12-27T10:09:17.931Z,5.30
2023-12-27T10:11:45.985Z,6.22
2023-12-27T10:14:14.330Z,6.15
2023-12-27T10:16:42.096Z,6.37
2023-12-27T10:19:09.994Z,5.62
2023-12-27T10:21:44.370Z,4.68
2023-12-27T10:24:12.210Z,5.20
2023-12-27T10:26:39.732Z,5.05
2023-12-27T10:29:09.166Z,4.80
2023-12-27T10:31:37.839Z,5.72
2023-12-27T10:34:07.127Z,3.90
2023-12-27T10:36:39.430Z,4.95
2023-12-27T10:39:07.919Z,5.50
2023-12-27T10:41:35.432Z,4.07
2023-12-27T10:44:05.415Z,6.43
2023-12-27T10:46:33.512Z,4.22
2023-12-27T10:49:03.270Z,8.63
2023-12-27T10:51:31.154Z,5.28
2023-12-27T10:54:02.009Z,5.70
2023-12-27T10:56:29.411Z,8.05
2023-12-27T10:58:56.847Z,4.20
2023-12-27T11:01:25.017Z,5.85
2023-12-27T11:03:52.498Z,8.77
2023-12-27T11:06:20.347Z,7.43
2023-12-27T11:08:48.058Z,8.68
2023-12-27T11:11:15.593Z,9.35
2023-12-27T11:13:43.002Z,5.43
2023-12-27T11:16:10.791Z,5.72
2023-12-27T11:18:38.461Z,8.80
2023-12-27T11:21:06.008Z,6.37
2023-12-27T11:23:33.685Z,6.15
2023-12-27T11:26:01.529Z,7.05
2023-12-27T11:28:29.380Z,5.45
2023-12-27T11:30:57.202Z,7.05
2023-12-27T11:33:25.509Z,5.90
2023-12-27T11:35:53.706Z,8.75
2023-12-27T11:38:24.058Z,5.93
2023-12-27T11:41:00.370Z,5.70
2023-12-27T11:46:02.368Z,6.32
2023-12-27T11:48:34.405Z,6.12
2023-12-27T11:51:02.010Z,7.90
2023-12-27T11:53:32.571Z,5.20
2023-12-27T11:56:00.405Z,5.60
2023-12-27T11:58:32.759Z,6.80
2023-12-27T12:01:31.720Z,10.93
2023-12-27T12:04:08.396Z,8.32
2023-12-27T12:06:53.782Z,8.23
2023-12-27T12:09:33.215Z,9.13
2023-12-27T12:12:11.587Z,7.10
2023-12-27T12:14:39.611Z,7.62
2023-12-27T12:17:08.234Z,8.98
2023-12-27T12:19:37.086Z,6.30
2023-12-27T12:22:05.117Z,7.10
2023-12-27T12:24:34.070Z,7.32
2023-12-27T12:27:02.001Z,6.93
2023-12-27T12:29:30.282Z,7.78
2023-12-27T12:31:57.810Z,6.22
2023-12-27T12:34:25.645Z,6.53
2023-12-27T12:36:53.555Z,7.70
2023-12-27T12:39:21.189Z,7.70
2023-12-27T12:41:48.707Z,5.93
2023-12-27T12:44:16.764Z,8.35
2023-12-27T12:46:44.293Z,11.63
2023-12-27T12:49:11.909Z,8.02
2023-12-27T12:51:39.707Z,6.68
2023-12-27T12:54:08.866Z,6.93
2023-12-27T12:56:40.572Z,7.25
2023-12-27T12:59:09.065Z,7.37
2023-12-27T13:01:36.691Z,7.15
2023-12-27T13:04:06.378Z,6.68
2023-12-27T13:06:35.802Z,10.07
2023-12-27T13:09:04.628Z,9.07
2023-12-27T13:11:35.517Z,7.47
2023-12-27T13:14:03.291Z,7.93
2023-12-27T13:16:30.683Z,7.05
2023-12-27T13:19:01.496Z,6.62
2023-12-27T13:21:30.365Z,9.23
2023-12-27T13:23:57.812Z,7.30
2023-12-27T13:26:25.288Z,7.10
2023-12-27T13:28:53.091Z,9.00
2023-12-27T13:31:21.111Z,11.55
2023-12-27T13:33:49.309Z,6.12
2023-12-27T13:36:17.777Z,6.20
2023-12-27T13:38:45.374Z,6.53
2023-12-27T13:41:12.789Z,6.47
2023-12-27T13:43:41.032Z,10.23
2023-12-27T13:46:08.674Z,5.97
2023-12-27T13:48:36.240Z,8.23
2023-12-27T13:51:04.146Z,7.00
2023-12-27T13:53:31.616Z,9.15
2023-12-27T13:55:59.084Z,6.60
2023-12-27T13:58:26.814Z,7.62
2023-12-27T14:00:54.262Z,9.57
2023-12-27T14:03:22.052Z,9.15
2023-12-27T14:05:49.537Z,7.97
2023-12-27T14:08:16.987Z,9.02
2023-12-27T14:10:45.721Z,7.82
2023-12-27T14:13:13.090Z,7.18
2023-12-27T14:15:40.566Z,8.73
2023-12-27T14:18:11.482Z,8.70
2023-12-27T14:20:40.709Z,10.15
2023-12-27T14:23:09.309Z,6.10
2023-12-27T14:25:36.872Z,7.18
2023-12-27T14:28:04.644Z,11.30
2023-12-27T14:30:33.090Z,13.73
2023-12-27T14:33:00.811Z,13.00
2023-12-27T14:35:28.816Z,18.00
2023-12-27T14:37:56.886Z,17.87
2023-12-27T14:40:26.687Z,21.75
2023-12-27T14:42:54.398Z,11.98
2023-12-27T14:45:22.397Z,18.60
2023-12-27T14:47:49.857Z,14.60
2023-12-27T14:50:17.282Z,12.90
2023-12-27T14:52:44.967Z,21.33
2023-12-27T14:55:12.485Z,14.80
2023-12-27T14:57:39.992Z,35.15
2023-12-27T15:00:08.135Z,23.73
2023-12-27T15:02:35.646Z,22.15
2023-12-27T15:05:03.438Z,24.80
2023-12-27T15:07:31.108Z,21.90
2023-12-27T15:09:58.539Z,22.35
2023-12-27T15:12:26.531Z,20.73
2023-12-27T15:14:56.869Z,21.27
2023-12-27T15:17:25.581Z,18.87
2023-12-27T15:19:53.046Z,15.45
2023-12-27T15:22:20.753Z,16.20
2023-12-27T15:24:48.255Z,20.27
2023-12-27T15:27:16.385Z,14.77
2023-12-27T15:29:44.677Z,14.70
2023-12-27T15:32:12.071Z,16.12
2023-12-27T15:34:43.225Z,11.18
2023-12-27T15:37:11.316Z,13.02
2023-12-27T15:39:38.798Z,15.48
2023-12-27T15:42:06.312Z,20.17
2023-12-27T15:44:34.004Z,11.32
2023-12-27T15:47:02.558Z,10.32
2023-12-27T15:49:30.200Z,12.73
2023-12-27T15:51:58.737Z,12.18
2023-12-27T15:54:26.205Z,15.80
2023-12-27T15:56:55.400Z,17.05
2023-12-27T15:59:23.201Z,12.85
2023-12-27T16:01:51.065Z,15.05
2023-12-27T16:04:19.407Z,22.35
2023-12-27T16:06:47.229Z,49.40
2023-12-27T16:09:15.036Z,21.67
2023-12-27T16:11:46.345Z,26.35
2023-12-27T16:14:13.971Z,23.23
2023-12-27T16:16:44.337Z,38.53
2023-12-27T16:19:12.433Z,38.30
2023-12-27T16:21:40.189Z,29.65
2023-12-27T16:24:07.875Z,30.88
2023-12-27T16:26:35.634Z,59.63
2023-12-27T16:29:03.051Z,36.38
2023-12-27T16:31:30.544Z,38.70
2023-12-27T16:33:58.371Z,36.13
2023-12-27T16:36:26.470Z,35.30
2023-12-27T16:38:55.383Z,39.85
2023-12-27T16:41:23.301Z,36.55
2023-12-27T16:43:50.926Z,38.25
2023-12-27T16:46:18.593Z,32.72
2023-12-27T16:48:48.300Z,36.40
2023-12-27T16:51:17.311Z,33.35
2023-12-27T16:53:44.776Z,27.23
2023-12-27T16:56:18.538Z,21.27
2023-12-27T16:58:47.861Z,24.95
2023-12-27T17:01:15.623Z,24.25
2023-12-27T17:03:43.353Z,23.60
2023-12-27T17:06:11.549Z,23.85
2023-12-27T17:08:39.380Z,21.90
2023-12-27T17:11:06.953Z,23.08
2023-12-27T17:13:34.394Z,25.25
2023-12-27T17:16:02.062Z,22.98
2023-12-27T17:18:31.641Z,24.52
2023-12-27T17:20:59.296Z,23.75
2023-12-27T17:23:26.949Z,23.92
2023-12-27T17:25:55.497Z,26.10
2023-12-27T17:28:22.925Z,28.35
2023-12-27T17:30:50.753Z,28.70
2023-12-27T17:33:18.329Z,23.60
2023-12-27T17:35:49.143Z,26.00
2023-12-27T17:38:16.934Z,24.73
2023-12-27T17:40:45.785Z,25.35
2023-12-27T17:43:13.413Z,25.27
2023-12-27T17:45:41.104Z,68.43
2023-12-27T17:48:08.955Z,58.30
2023-12-27T17:50:38.976Z,46.85
2023-12-27T17:53:06.651Z,57.15
2023-12-27T17:55:35.479Z,40.42
2023-12-27T17:58:02.912Z,45.92
2023-12-27T18:00:30.584Z,50.42
2023-12-27T18:02:58.379Z,50.83
2023-12-27T18:05:30.566Z,67.90
2023-12-27T18:07:58.258Z,57.17
2023-12-27T18:10:26.199Z,49.15
2023-12-27T18:12:53.781Z,46.13
2023-12-27T18:15:21.727Z,44.58
2023-12-27T18:17:49.293Z,44.90
2023-12-27T18:20:16.751Z,42.47
2023-12-27T18:22:44.423Z,37.47
2023-12-27T18:25:12.366Z,29.23
2023-12-27T18:27:39.923Z,31.00
2023-12-27T18:30:08.636Z,36.88
2023-12-27T18:32:36.196Z,31.90
2023-12-27T18:35:04.961Z,31.70
2023-12-27T18:37:32.804Z,37.72
2023-12-27T18:40:00.395Z,39.78
2023-12-27T18:42:27.980Z,35.13
2023-12-27T18:44:55.692Z,35.42
2023-12-27T18:47:23.141Z,36.03
2023-12-27T18:49:50.694Z,31.37
2023-12-27T18:52:18.459Z,28.98
2023-12-27T18:54:45.938Z,29.92
2023-12-27T18:57:14.206Z,32.10
2023-12-27T18:59:41.946Z,35.67
2023-12-27T19:02:09.387Z,41.92
2023-12-27T19:04:37.413Z,31.45
2023-12-27T19:07:05.221Z,29.60
2023-12-27T19:09:33.978Z,32.58
2023-12-27T19:12:02.079Z,32.78
2023-12-27T19:14:29.941Z,34.88
2023-12-27T19:16:57.387Z,37.42
2023-12-27T19:19:25.497Z,37.20
2023-12-27T19:21:57.405Z,36.20
2023-12-27T19:24:25.039Z,39.90
2023-12-27T19:26:54.981Z,38.80
2023-12-27T19:29:22.870Z,51.08
2023-12-27T19:31:50.370Z,43.63
2023-12-27T19:34:18.152Z,56.25
2023-12-27T19:36:45.649Z,37.33
2023-12-27T19:39:13.166Z,46.05
2023-12-27T19:41:40.870Z,41.67
2023-12-27T19:44:08.472Z,42.65
2023-12-27T19:46:35.876Z,43.75
2023-12-27T19:49:03.799Z,61.95
2023-12-27T19:51:31.455Z,97.35
2023-12-27T19:53:58.888Z,58.60
2023-12-27T19:56:26.538Z,55.03
2023-12-27T19:58:54.123Z,62.25
2023-12-27T20:01:25.795Z,60.92
2023-12-27T20:03:53.598Z,52.88
2023-12-27T20:06:21.082Z,48.30
2023-12-27T20:08:48.531Z,53.25
2023-12-27T20:11:16.420Z,51.58
2023-12-27T20:13:44.208Z,49.42
2023-12-27T20:16:11.705Z,49.85
2023-12-27T20:18:39.552Z,49.15
2023-12-27T20:21:07.353Z,52.30
2023-12-27T20:23:39.733Z,47.70
2023-12-27T20:26:07.711Z,48.25
2023-12-27T20:28:36.723Z,49.30
2023-12-27T20:31:05.230Z,63.33
2023-12-27T20:33:34.274Z,67.22
2023-12-27T20:36:03.143Z,69.43
2023-12-27T20:38:30.630Z,59.70
2023-12-27T20:40:58.321Z,61.35
2023-12-27T20:43:25.740Z,64.05
2023-12-27T20:45:53.249Z,58.72
2023-12-27T20:48:24.243Z,55.47
2023-12-27T20:50:52.382Z,59.08
2023-12-27T20:53:19.836Z,56.72
2023-12-27T20:55:47.532Z,53.10
2023-12-27T20:58:14.972Z,55.20
2023-12-27T21:00:42.547Z,58.65
2023-12-27T21:03:10.480Z,58.75
2023-12-27T21:05:38.533Z,54.90
2023-12-27T21:08:06.441Z,56.13
2023-12-27T21:10:34.156Z,50.72
2023-12-27T21:13:01.632Z,49.75
2023-12-27T21:15:29.157Z,49.47
2023-12-27T21:17:57.178Z,48.67
2023-12-27T21:20:24.854Z,52.28
2023-12-27T21:22:52.271Z,56.05
2023-12-27T21:25:20.055Z,45.88
2023-12-27T21:27:47.523Z,51.65
2023-12-27T21:30:15.310Z,54.85
2023-12-27T21:32:48.932Z,49.30
2023-12-27T21:35:16.562Z,43.53
2023-12-27T21:37:44.264Z,58.17
2023-12-27T21:40:11.785Z,45.60
2023-12-27T21:42:39.181Z,43.60
2023-12-27T21:45:07.435Z,43.33
2023-12-27T21:47:34.969Z,39.25
2023-12-27T21:50:02.769Z,27.50
2023-12-27T21:52:30.714Z,35.17
2023-12-27T21:54:58.163Z,33.47
2023-12-27T21:57:25.608Z,29.42
2023-12-27T21:59:53.323Z,31.58
2023-12-27T22:02:20.783Z,35.15
2023-12-27T22:04:48.474Z,33.22
2023-12-27T22:07:16.766Z,38.97
2023-12-27T22:09:44.547Z,72.80
2023-12-27T22:12:12.331Z,44.22
2023-12-27T22:14:39.773Z,48.13
2023-12-27T22:17:07.164Z,47.62
2023-12-27T22:19:36.538Z,52.28
2023-12-27T22:22:04.346Z,45.80
2023-12-27T22:24:31.808Z,47.78
2023-12-27T22:26:59.466Z,59.30
2023-12-27T22:29:26.945Z,52.62
2023-12-27T22:31:54.576Z,51.33
2023-12-27T22:34:22.525Z,50.80
2023-12-27T22:36:50.180Z,48.60
2023-12-27T22:39:18.604Z,40.40
2023-12-27T22:41:46.319Z,49.22
2023-12-27T22:44:13.745Z,47.15
2023-12-27T22:46:41.186Z,40.70
2023-12-27T22:49:08.987Z,38.75
2023-12-27T22:51:36.509Z,52.58
2023-12-27T22:54:03.971Z,50.20
2023-12-27T22:56:31.668Z,41.08
2023-12-27T22:58:59.221Z,48.58
2023-12-27T23:01:26.635Z,35.00
2023-12-27T23:03:54.776Z,26.00
2023-12-27T23:06:22.791Z,32.47
2023-12-27T23:08:50.656Z,29.17
2023-12-27T23:11:18.297Z,28.80
2023-12-27T23:13:45.682Z,30.02
2023-12-27T23:16:13.086Z,20.88
2023-12-27T23:18:40.961Z,22.57
2023-12-27T23:21:08.811Z,24.85
2023-12-27T23:23:36.199Z,22.37
2023-12-27T23:26:03.895Z,27.42
2023-12-27T23:28:31.337Z,20.60
2023-12-27T23:30:58.887Z,20.35
2023-12-27T23:33:27.004Z,21.37
2023-12-27T23:35:54.648Z,23.10
2023-12-27T23:38:22.060Z,19.58
2023-12-27T23:40:49.694Z,16.52
2023-12-27T23:43:17.061Z,20.77
2023-12-27T23:45:44.681Z,19.92
2023-12-27T23:48:12.517Z,19.85
2023-12-27T23:50:40.172Z,20.27
2023-12-27T23:53:07.584Z,16.12
2023-12-27T23:55:35.245Z,21.27
2023-12-27T23:58:03.001Z,20.23
